HKNW/WIL METAR and TAF weather

Enter ICAO airport designator
Station Type Date Time Source
HKNW METAR 2022/05/23 13:00 UTC NOAA

HKNW 231300Z 15009KT 9999 BKN029 27/10 Q1017


Station Type Date Time Source
HKNW Decoded METAR 2022/05/23 13:00 UTC NOAA

Nairobi / Wilson, Kenya (HKNW) 01-19S 036-49E 1679M
May 23, 2022 - 09:00 AM EDT / 2022.05.23 1300 UTC
Wind: from the SSE (150 degrees) at 10 MPH (9 KT):0
Visibility: greater than 7 mile(s):0
Sky conditions: mostly cloudy
Temperature: 80 F (27 C)
Dew Point: 50 F (10 C)
Relative Humidity: 34%
Pressure (altimeter): 30.03 in. Hg (1017 hPa)
ob: HKNW 231300Z 15009KT 9999 BKN029 27/10 Q1017
cycle: 13

Station Type Date Time Source
HKNW TAF 2022/05/23 12:15 UTC NOAA

TAF HKNW 231100Z 2312/2412 12010KT 9999 SCT028
TEMPO 2314/2418 -SHRA FEW021CB SCT022 BKN080
BECMG 2320/2324 04005KT NSW BKN017
BECMG 2402/2405 21005KT FEW007 BKN015
BECMG 2408/2411 13010KT BKN024

Example: see airport list